sensor_id;sensor_type;location;lat;lon;timestamp;pressure;altitude;pressure_sealevel;temperature;humidity
24666;BME280;29726;53.532;-1.478;2023-03-24T00:02:43;97929.88;;;15.23;100.00
24666;BME280;29726;53.532;-1.478;2023-03-24T00:05:29;97923.13;;;15.18;100.00
24666;BME280;29726;53.532;-1.478;2023-03-24T00:08:44;97930.06;;;15.17;100.00
24666;BME280;29726;53.532;-1.478;2023-03-24T00:11:31;97927.25;;;15.10;100.00
24666;BME280;29726;53.532;-1.478;2023-03-24T00:14:19;97927.44;;;15.12;100.00
24666;BME280;29726;53.532;-1.478;2023-03-24T00:17:07;97938.28;;;15.08;100.00
24666;BME280;29726;53.532;-1.478;2023-03-24T00:19:55;97945.59;;;15.11;100.00
24666;BME280;29726;53.532;-1.478;2023-03-24T00:22:42;97933.22;;;14.99;100.00
24666;BME280;29726;53.532;-1.478;2023-03-24T00:25:32;97937.72;;;15.02;100.00
24666;BME280;29726;53.532;-1.478;2023-03-24T00:28:18;97948.19;;;15.01;100.00
24666;BME280;29726;53.532;-1.478;2023-03-24T00:31:04;97939.94;;;14.96;100.00
24666;BME280;29726;53.532;-1.478;2023-03-24T00:33:49;97938.44;;;14.95;100.00
24666;BME280;29726;53.532;-1.478;2023-03-24T00:36:36;97951.75;;;14.95;100.00
24666;BME280;29726;53.532;-1.478;2023-03-24T00:39:20;97955.69;;;14.92;100.00
24666;BME280;29726;53.532;-1.478;2023-03-24T00:42:04;97953.44;;;14.90;100.00
24666;BME280;29726;53.532;-1.478;2023-03-24T00:44:48;97951.75;;;14.87;100.00
24666;BME280;29726;53.532;-1.478;2023-03-24T00:47:32;97957.72;;;14.84;100.00
24666;BME280;29726;53.532;-1.478;2023-03-24T00:50:20;97940.09;;;14.76;100.00
24666;BME280;29726;53.532;-1.478;2023-03-24T00:53:09;97942.19;;;14.75;100.00
24666;BME280;29726;53.532;-1.478;2023-03-24T00:55:53;97954.13;;;14.76;100.00
24666;BME280;29726;53.532;-1.478;2023-03-24T00:58:37;97963.88;;;14.75;100.00
24666;BME280;29726;53.532;-1.478;2023-03-24T01:01:25;97953.00;;;14.71;100.00
24666;BME280;29726;53.532;-1.478;2023-03-24T01:04:10;97965.34;;;14.68;100.00
24666;BME280;29726;53.532;-1.478;2023-03-24T01:06:54;97950.38;;;14.66;100.00
24666;BME280;29726;53.532;-1.478;2023-03-24T01:09:41;97955.97;;;14.58;100.00
24666;BME280;29726;53.532;-1.478;2023-03-24T01:12:32;97946.97;;;14.52;99.83
24666;BME280;29726;53.532;-1.478;2023-03-24T01:15:19;97967.19;;;14.58;99.90
24666;BME280;29726;53.532;-1.478;2023-03-24T01:18:03;97953.47;;;14.47;99.75
24666;BME280;29726;53.532;-1.478;2023-03-24T01:20:47;97980.66;;;14.52;99.67
24666;BME280;29726;53.532;-1.478;2023-03-24T01:23:34;97957.59;;;14.46;99.36
24666;BME280;29726;53.532;-1.478;2023-03-24T01:26:18;97968.63;;;14.44;99.58
24666;BME280;29726;53.532;-1.478;2023-03-24T01:29:02;97962.63;;;14.40;99.55
24666;BME280;29726;53.532;-1.478;2023-03-24T01:31:46;97961.13;;;14.39;99.63
24666;BME280;29726;53.532;-1.478;2023-03-24T01:34:30;97955.31;;;14.37;99.68
24666;BME280;29726;53.532;-1.478;2023-03-24T01:37:14;97951.56;;;14.35;99.70
24666;BME280;29726;53.532;-1.478;2023-03-24T01:39:58;97968.78;;;14.31;99.70
24666;BME280;29726;53.532;-1.478;2023-03-24T01:42:43;97967.06;;;14.28;99.96
24666;BME280;29726;53.532;-1.478;2023-03-24T01:48:59;97967.44;;;14.25;99.84
24666;BME280;29726;53.532;-1.478;2023-03-24T01:51:46;97972.25;;;14.17;99.98
24666;BME280;29726;53.532;-1.478;2023-03-24T01:54:41;97971.69;;;14.18;99.94
24666;BME280;29726;53.532;-1.478;2023-03-24T01:57:37;97971.06;;;14.12;99.91
24666;BME280;29726;53.532;-1.478;2023-03-24T02:00:22;97960.56;;;14.05;99.86
24666;BME280;29726;53.532;-1.478;2023-03-24T02:03:10;97978.72;;;14.12;99.76
24666;BME280;29726;53.532;-1.478;2023-03-24T02:05:57;97971.97;;;14.07;99.92
24666;BME280;29726;53.532;-1.478;2023-03-24T02:08:52;97975.34;;;14.06;99.78
24666;BME280;29726;53.532;-1.478;2023-03-24T02:11:38;97989.94;;;14.04;99.69
24666;BME280;29726;53.532;-1.478;2023-03-24T02:14:23;97982.19;;;13.97;99.54
24666;BME280;29726;53.532;-1.478;2023-03-24T02:26:22;97993.00;;;13.93;99.68
24666;BME280;29726;53.532;-1.478;2023-03-24T02:33:11;97979.09;;;13.80;99.90
24666;BME280;29726;53.532;-1.478;2023-03-24T02:39:38;97995.38;;;13.82;99.51
24666;BME280;29726;53.532;-1.478;2023-03-24T02:46:10;97989.91;;;13.76;99.59
24666;BME280;29726;53.532;-1.478;2023-03-24T02:52:39;98011.94;;;13.72;99.60
24666;BME280;29726;53.532;-1.478;2023-03-24T02:55:45;98011.00;;;13.70;99.89
24666;BME280;29726;53.532;-1.478;2023-03-24T02:58:40;97997.66;;;13.63;99.74
24666;BME280;29726;53.532;-1.478;2023-03-24T03:01:34;98007.56;;;13.64;99.81
24666;BME280;29726;53.532;-1.478;2023-03-24T03:04:32;98015.03;;;13.61;99.84
24666;BME280;29726;53.532;-1.478;2023-03-24T03:07:24;98008.66;;;13.61;99.76
24666;BME280;29726;53.532;-1.478;2023-03-24T03:10:33;98000.81;;;13.59;99.79
24666;BME280;29726;53.532;-1.478;2023-03-24T03:13:25;98000.94;;;13.54;99.73
24666;BME280;29726;53.532;-1.478;2023-03-24T03:16:17;97994.03;;;13.55;99.69
24666;BME280;29726;53.532;-1.478;2023-03-24T03:22:06;98002.59;;;13.49;99.60
24666;BME280;29726;53.532;-1.478;2023-03-24T03:24:53;98003.28;;;13.42;99.61
24666;BME280;29726;53.532;-1.478;2023-03-24T03:27:40;98005.75;;;13.46;99.70
24666;BME280;29726;53.532;-1.478;2023-03-24T03:30:34;98005.75;;;13.46;99.78
24666;BME280;29726;53.532;-1.478;2023-03-24T03:33:35;98004.22;;;13.45;99.63
24666;BME280;29726;53.532;-1.478;2023-03-24T03:36:25;98005.53;;;13.44;99.56
24666;BME280;29726;53.532;-1.478;2023-03-24T03:39:20;98011.69;;;13.42;99.90
24666;BME280;29726;53.532;-1.478;2023-03-24T03:42:07;98010.31;;;13.36;99.68
24666;BME280;29726;53.532;-1.478;2023-03-24T03:44:52;98024.88;;;13.34;99.65
24666;BME280;29726;53.532;-1.478;2023-03-24T03:47:36;98031.44;;;13.37;99.79
24666;BME280;29726;53.532;-1.478;2023-03-24T03:50:20;98016.81;;;13.31;99.86
24666;BME280;29726;53.532;-1.478;2023-03-24T03:53:06;98017.34;;;13.29;99.86
24666;BME280;29726;53.532;-1.478;2023-03-24T03:55:50;98025.22;;;13.31;99.91
24666;BME280;29726;53.532;-1.478;2023-03-24T03:58:35;98025.22;;;13.31;100.00
24666;BME280;29726;53.532;-1.478;2023-03-24T04:01:21;98029.31;;;13.30;99.88
24666;BME280;29726;53.532;-1.478;2023-03-24T04:07:29;98024.81;;;13.27;99.97
24666;BME280;29726;53.532;-1.478;2023-03-24T04:10:28;98023.84;;;13.25;100.00
24666;BME280;29726;53.532;-1.478;2023-03-24T04:16:21;98042.47;;;13.22;99.94
24666;BME280;29726;53.532;-1.478;2023-03-24T04:22:26;98037.75;;;13.17;100.00
24666;BME280;29726;53.532;-1.478;2023-03-24T04:31:52;98036.25;;;13.16;100.00
24666;BME280;29726;53.532;-1.478;2023-03-24T04:34:45;98036.63;;;13.13;100.00
24666;BME280;29726;53.532;-1.478;2023-03-24T04:37:35;98042.22;;;13.13;100.00
24666;BME280;29726;53.532;-1.478;2023-03-24T04:40:23;98030.38;;;13.07;100.00
24666;BME280;29726;53.532;-1.478;2023-03-24T04:43:11;98024.91;;;13.01;100.00
24666;BME280;29726;53.532;-1.478;2023-03-24T04:45:56;98034.47;;;13.06;100.00
24666;BME280;29726;53.532;-1.478;2023-03-24T04:48:41;98030.53;;;13.01;100.00
24666;BME280;29726;53.532;-1.478;2023-03-24T04:51:26;98017.59;;;12.98;100.00
24666;BME280;29726;53.532;-1.478;2023-03-24T04:54:11;98042.13;;;13.05;100.00
24666;BME280;29726;53.532;-1.478;2023-03-24T04:56:58;98039.88;;;13.04;100.00
24666;BME280;29726;53.532;-1.478;2023-03-24T04:59:44;98034.63;;;13.00;100.00
24666;BME280;29726;53.532;-1.478;2023-03-24T05:02:28;98045.06;;;13.00;100.00
24666;BME280;29726;53.532;-1.478;2023-03-24T05:05:12;98021.03;;;12.91;100.00
24666;BME280;29726;53.532;-1.478;2023-03-24T05:07:57;98030.63;;;12.96;100.00
24666;BME280;29726;53.532;-1.478;2023-03-24T05:10:41;98050.25;;;12.96;100.00
24666;BME280;29726;53.532;-1.478;2023-03-24T05:13:26;98036.78;;;12.94;100.00
24666;BME280;29726;53.532;-1.478;2023-03-24T05:16:09;98046.22;;;12.91;100.00
24666;BME280;29726;53.532;-1.478;2023-03-24T05:18:53;98047.44;;;12.83;100.00
24666;BME280;29726;53.532;-1.478;2023-03-24T05:21:37;98052.16;;;12.88;100.00
24666;BME280;29726;53.532;-1.478;2023-03-24T05:24:22;98056.47;;;12.89;100.00
24666;BME280;29726;53.532;-1.478;2023-03-24T05:27:06;98058.50;;;12.88;100.00
24666;BME280;29726;53.532;-1.478;2023-03-24T05:29:50;98053.59;;;12.81;100.00
24666;BME280;29726;53.532;-1.478;2023-03-24T05:32:34;98060.56;;;12.88;100.00
24666;BME280;29726;53.532;-1.478;2023-03-24T05:35:18;98061.56;;;12.77;100.00
24666;BME280;29726;53.532;-1.478;2023-03-24T05:38:03;98058.44;;;12.81;100.00
24666;BME280;29726;53.532;-1.478;2023-03-24T05:40:47;98068.53;;;12.84;100.00
24666;BME280;29726;53.532;-1.478;2023-03-24T05:43:31;98084.59;;;12.83;100.00
24666;BME280;29726;53.532;-1.478;2023-03-24T05:46:15;98086.84;;;12.85;100.00
24666;BME280;29726;53.532;-1.478;2023-03-24T05:48:58;98076.50;;;12.80;100.00
24666;BME280;29726;53.532;-1.478;2023-03-24T05:51:42;98084.91;;;12.80;100.00
24666;BME280;29726;53.532;-1.478;2023-03-24T05:54:26;98090.72;;;12.82;100.00
24666;BME280;29726;53.532;-1.478;2023-03-24T05:57:12;98084.69;;;12.78;100.00
24666;BME280;29726;53.532;-1.478;2023-03-24T05:59:57;98067.84;;;12.57;100.00
24666;BME280;29726;53.532;-1.478;2023-03-24T06:02:45;98097.72;;;12.75;100.00
24666;BME280;29726;53.532;-1.478;2023-03-24T06:05:29;98096.34;;;12.69;100.00
24666;BME280;29726;53.532;-1.478;2023-03-24T06:08:13;98111.19;;;12.77;100.00
24666;BME280;29726;53.532;-1.478;2023-03-24T06:11:03;98108.72;;;12.73;100.00
24666;BME280;29726;53.532;-1.478;2023-03-24T06:13:47;98107.75;;;12.71;100.00
24666;BME280;29726;53.532;-1.478;2023-03-24T06:16:31;98116.38;;;12.73;100.00
24666;BME280;29726;53.532;-1.478;2023-03-24T06:19:17;98100.25;;;12.66;100.00
24666;BME280;29726;53.532;-1.478;2023-03-24T06:22:05;98110.00;;;12.72;100.00
24666;BME280;29726;53.532;-1.478;2023-03-24T06:24:49;98098.59;;;12.70;100.00
24666;BME280;29726;53.532;-1.478;2023-03-24T06:27:33;98096.88;;;12.67;100.00
24666;BME280;29726;53.532;-1.478;2023-03-24T06:30:18;98107.34;;;12.67;100.00
24666;BME280;29726;53.532;-1.478;2023-03-24T06:33:02;98104.19;;;12.70;100.00
24666;BME280;29726;53.532;-1.478;2023-03-24T06:35:47;98102.47;;;12.67;100.00
24666;BME280;29726;53.532;-1.478;2023-03-24T06:38:31;98100.66;;;12.70;100.00
24666;BME280;29726;53.532;-1.478;2023-03-24T06:41:16;98093.34;;;12.67;100.00
24666;BME280;29726;53.532;-1.478;2023-03-24T06:44:00;98082.56;;;12.58;100.00
24666;BME280;29726;53.532;-1.478;2023-03-24T06:46:44;98103.78;;;12.66;100.00
24666;BME280;29726;53.532;-1.478;2023-03-24T06:49:29;98118.75;;;12.69;100.00
24666;BME280;29726;53.532;-1.478;2023-03-24T06:52:13;98112.72;;;12.65;100.00
24666;BME280;29726;53.532;-1.478;2023-03-24T06:54:58;98124.88;;;12.67;100.00
24666;BME280;29726;53.532;-1.478;2023-03-24T06:57:42;98140.59;;;12.70;100.00
24666;BME280;29726;53.532;-1.478;2023-03-24T07:00:27;98156.63;;;12.70;100.00
24666;BME280;29726;53.532;-1.478;2023-03-24T07:03:13;98141.34;;;12.71;100.00
24666;BME280;29726;53.532;-1.478;2023-03-24T07:05:58;98118.75;;;12.69;100.00
24666;BME280;29726;53.532;-1.478;2023-03-24T07:08:43;98112.16;;;12.66;100.00
24666;BME280;29726;53.532;-1.478;2023-03-24T07:11:27;98123.78;;;12.70;100.00
24666;BME280;29726;53.532;-1.478;2023-03-24T07:14:11;98089.34;;;12.49;100.00
24666;BME280;29726;53.532;-1.478;2023-03-24T07:16:55;98091.84;;;12.66;100.00
24666;BME280;29726;53.532;-1.478;2023-03-24T07:19:39;98118.19;;;12.70;100.00
24666;BME280;29726;53.532;-1.478;2023-03-24T07:22:23;98122.50;;;12.71;100.00
24666;BME280;29726;53.532;-1.478;2023-03-24T07:25:07;98138.97;;;12.75;100.00
24666;BME280;29726;53.532;-1.478;2023-03-24T07:27:55;98134.88;;;12.76;100.00
24666;BME280;29726;53.532;-1.478;2023-03-24T07:30:39;98135.31;;;12.80;100.00
24666;BME280;29726;53.532;-1.478;2023-03-24T07:33:23;98124.66;;;12.78;100.00
24666;BME280;29726;53.532;-1.478;2023-03-24T07:36:07;98090.97;;;12.58;100.00
24666;BME280;29726;53.532;-1.478;2023-03-24T07:38:51;98134.88;;;12.89;100.00
24666;BME280;29726;53.532;-1.478;2023-03-24T07:41:35;98122.28;;;12.82;100.00
24666;BME280;29726;53.532;-1.478;2023-03-24T07:44:19;98118.53;;;12.93;100.00
24666;BME280;29726;53.532;-1.478;2023-03-24T07:47:03;98114.44;;;12.94;100.00
24666;BME280;29726;53.532;-1.478;2023-03-24T07:49:48;98089.22;;;12.81;100.00
24666;BME280;29726;53.532;-1.478;2023-03-24T07:52:32;98108.38;;;13.03;100.00
24666;BME280;29726;53.532;-1.478;2023-03-24T07:55:16;98123.97;;;13.11;100.00
24666;BME280;29726;53.532;-1.478;2023-03-24T07:58:00;98108.88;;;13.14;100.00
24666;BME280;29726;53.532;-1.478;2023-03-24T08:00:44;98108.56;;;13.18;100.00
24666;BME280;29726;53.532;-1.478;2023-03-24T08:03:28;98117.78;;;13.26;100.00
24666;BME280;29726;53.532;-1.478;2023-03-24T08:06:12;98115.41;;;13.29;100.00
24666;BME280;29726;53.532;-1.478;2023-03-24T08:08:56;98116.59;;;13.34;100.00
24666;BME280;29726;53.532;-1.478;2023-03-24T08:11:40;98119.69;;;13.43;100.00
24666;BME280;29726;53.532;-1.478;2023-03-24T08:14:24;98108.06;;;13.39;100.00
24666;BME280;29726;53.532;-1.478;2023-03-24T08:17:08;98120.69;;;13.53;100.00
24666;BME280;29726;53.532;-1.478;2023-03-24T08:19:52;98129.00;;;13.59;100.00
24666;BME280;29726;53.532;-1.478;2023-03-24T08:22:36;98124.41;;;13.69;100.00
24666;BME280;29726;53.532;-1.478;2023-03-24T08:25:24;98134.00;;;13.73;100.00
24666;BME280;29726;53.532;-1.478;2023-03-24T08:28:08;98127.69;;;13.80;100.00
24666;BME280;29726;53.532;-1.478;2023-03-24T08:30:53;98133.75;;;13.84;100.00
24666;BME280;29726;53.532;-1.478;2023-03-24T08:33:37;98098.50;;;13.76;100.00
24666;BME280;29726;53.532;-1.478;2023-03-24T08:36:21;98129.00;;;14.00;100.00
24666;BME280;29726;53.532;-1.478;2023-03-24T08:39:09;98108.91;;;13.88;100.00
24666;BME280;29726;53.532;-1.478;2023-03-24T08:41:52;98130.97;;;14.12;100.00
24666;BME280;29726;53.532;-1.478;2023-03-24T08:44:37;98110.69;;;13.99;100.00
24666;BME280;29726;53.532;-1.478;2023-03-24T08:47:21;98145.09;;;14.20;100.00
24666;BME280;29726;53.532;-1.478;2023-03-24T08:50:06;98139.56;;;14.27;100.00
24666;BME280;29726;53.532;-1.478;2023-03-24T08:52:51;98147.81;;;14.33;100.00
24666;BME280;29726;53.532;-1.478;2023-03-24T08:55:35;98152.13;;;14.34;100.00
24666;BME280;29726;53.532;-1.478;2023-03-24T08:58:21;98164.50;;;14.38;100.00
24666;BME280;29726;53.532;-1.478;2023-03-24T09:01:05;98155.31;;;14.38;100.00
24666;BME280;29726;53.532;-1.478;2023-03-24T09:03:50;98167.91;;;14.44;100.00
24666;BME280;29726;53.532;-1.478;2023-03-24T09:06:34;98174.13;;;14.50;100.00
24666;BME280;29726;53.532;-1.478;2023-03-24T09:09:18;98165.94;;;14.52;100.00
24666;BME280;29726;53.532;-1.478;2023-03-24T09:12:02;98167.84;;;14.57;100.00
24666;BME280;29726;53.532;-1.478;2023-03-24T09:14:48;98167.69;;;14.63;100.00
24666;BME280;29726;53.532;-1.478;2023-03-24T09:17:33;98166.38;;;14.64;100.00
24666;BME280;29726;53.532;-1.478;2023-03-24T09:20:17;98122.66;;;14.48;100.00
24666;BME280;29726;53.532;-1.478;2023-03-24T09:23:01;98147.88;;;14.68;100.00
24666;BME280;29726;53.532;-1.478;2023-03-24T09:25:47;98153.38;;;14.81;100.00
24666;BME280;29726;53.532;-1.478;2023-03-24T09:28:32;98152.66;;;14.88;100.00
24666;BME280;29726;53.532;-1.478;2023-03-24T09:31:15;98151.22;;;14.95;100.00
24666;BME280;29726;53.532;-1.478;2023-03-24T09:34:00;98155.38;;;15.01;100.00
24666;BME280;29726;53.532;-1.478;2023-03-24T09:36:44;98143.41;;;15.08;100.00
24666;BME280;29726;53.532;-1.478;2023-03-24T09:39:28;98133.31;;;15.12;100.00
24666;BME280;29726;53.532;-1.478;2023-03-24T09:42:19;98142.56;;;15.28;100.00
24666;BME280;29726;53.532;-1.478;2023-03-24T09:45:25;98149.94;;;15.38;100.00
24666;BME280;29726;53.532;-1.478;2023-03-24T09:51:20;98151.09;;;15.58;100.00
24666;BME280;29726;53.532;-1.478;2023-03-24T09:56:56;98138.41;;;15.72;100.00
24666;BME280;29726;53.532;-1.478;2023-03-24T09:59:40;98144.00;;;15.64;100.00
24666;BME280;29726;53.532;-1.478;2023-03-24T10:02:27;98124.88;;;15.70;100.00
24666;BME280;29726;53.532;-1.478;2023-03-24T10:05:14;98179.50;;;15.97;100.00
24666;BME280;29726;53.532;-1.478;2023-03-24T10:08:30;98177.28;;;16.03;100.00
24666;BME280;29726;53.532;-1.478;2023-03-24T10:11:41;98176.16;;;16.06;100.00
24666;BME280;29726;53.532;-1.478;2023-03-24T10:14:51;98187.03;;;16.10;100.00
24666;BME280;29726;53.532;-1.478;2023-03-24T10:23:58;98157.94;;;16.22;100.00
24666;BME280;29726;53.532;-1.478;2023-03-24T10:29:45;98171.13;;;16.35;100.00
24666;BME280;29726;53.532;-1.478;2023-03-24T10:32:33;98167.19;;;16.38;100.00
24666;BME280;29726;53.532;-1.478;2023-03-24T10:35:24;98165.69;;;16.52;100.00
24666;BME280;29726;53.532;-1.478;2023-03-24T10:38:18;98159.28;;;16.59;100.00
24666;BME280;29726;53.532;-1.478;2023-03-24T10:41:04;98162.66;;;16.65;100.00
24666;BME280;29726;53.532;-1.478;2023-03-24T10:43:49;98142.34;;;16.73;100.00
24666;BME280;29726;53.532;-1.478;2023-03-24T10:46:37;98148.53;;;16.79;100.00
24666;BME280;29726;53.532;-1.478;2023-03-24T10:49:25;98168.59;;;16.91;100.00
24666;BME280;29726;53.532;-1.478;2023-03-24T10:52:10;98162.78;;;16.96;100.00
24666;BME280;29726;53.532;-1.478;2023-03-24T10:55:02;98168.97;;;17.02;100.00
24666;BME280;29726;53.532;-1.478;2023-03-24T10:57:54;98156.38;;;17.03;100.00
24666;BME280;29726;53.532;-1.478;2023-03-24T11:00:42;98145.88;;;16.96;100.00
24666;BME280;29726;53.532;-1.478;2023-03-24T11:03:30;98174.19;;;17.13;100.00
24666;BME280;29726;53.532;-1.478;2023-03-24T11:06:20;98181.88;;;17.20;100.00
24666;BME280;29726;53.532;-1.478;2023-03-24T11:09:21;98189.56;;;17.27;100.00
24666;BME280;29726;53.532;-1.478;2023-03-24T11:12:23;98182.97;;;17.32;100.00
24666;BME280;29726;53.532;-1.478;2023-03-24T11:15:26;98189.56;;;17.35;100.00
24666;BME280;29726;53.532;-1.478;2023-03-24T11:18:14;98228.28;;;17.42;100.00
24666;BME280;29726;53.532;-1.478;2023-03-24T11:21:01;98198.34;;;17.46;100.00
24666;BME280;29726;53.532;-1.478;2023-03-24T11:23:49;98197.03;;;17.47;100.00
24666;BME280;29726;53.532;-1.478;2023-03-24T11:26:35;98204.16;;;17.56;100.00
24666;BME280;29726;53.532;-1.478;2023-03-24T11:29:22;98197.72;;;17.63;100.00
24666;BME280;29726;53.532;-1.478;2023-03-24T11:32:13;98189.25;;;17.63;100.00
24666;BME280;29726;53.532;-1.478;2023-03-24T11:35:06;98213.47;;;17.73;100.00
24666;BME280;29726;53.532;-1.478;2023-03-24T11:37:50;98191.25;;;17.77;100.00
24666;BME280;29726;53.532;-1.478;2023-03-24T11:40:35;98204.00;;;17.86;100.00
24666;BME280;29726;53.532;-1.478;2023-03-24T11:43:20;98201.16;;;17.86;100.00
24666;BME280;29726;53.532;-1.478;2023-03-24T11:46:12;98214.47;;;18.00;100.00
24666;BME280;29726;53.532;-1.478;2023-03-24T11:49:00;98220.06;;;18.08;100.00
24666;BME280;29726;53.532;-1.478;2023-03-24T11:51:49;98223.59;;;18.16;100.00
24666;BME280;29726;53.532;-1.478;2023-03-24T11:54:35;98224.88;;;18.22;100.00
24666;BME280;29726;53.532;-1.478;2023-03-24T11:57:40;98223.72;;;18.25;100.00
24666;BME280;29726;53.532;-1.478;2023-03-24T12:00:34;98223.88;;;18.35;100.00
24666;BME280;29726;53.532;-1.478;2023-03-24T12:03:50;98211.25;;;18.36;100.00
24666;BME280;29726;53.532;-1.478;2023-03-24T12:09:50;98237.03;;;18.40;100.00
24666;BME280;29726;53.532;-1.478;2023-03-24T12:13:09;98236.09;;;18.37;100.00
24666;BME280;29726;53.532;-1.478;2023-03-24T12:19:12;98207.78;;;18.45;100.00
24666;BME280;29726;53.532;-1.478;2023-03-24T12:33:46;98195.78;;;18.61;100.00
24666;BME280;29726;53.532;-1.478;2023-03-24T12:36:39;98194.06;;;18.65;100.00
24666;BME280;29726;53.532;-1.478;2023-03-24T12:39:30;98182.34;;;18.69;100.00
24666;BME280;29726;53.532;-1.478;2023-03-24T12:42:15;98189.81;;;18.74;100.00
24666;BME280;29726;53.532;-1.478;2023-03-24T12:45:20;98172.28;;;18.75;100.00
24666;BME280;29726;53.532;-1.478;2023-03-24T12:48:33;98184.50;;;18.78;100.00
24666;BME280;29726;53.532;-1.478;2023-03-24T12:57:24;98180.22;;;18.94;100.00
24666;BME280;29726;53.532;-1.478;2023-03-24T13:00:22;98175.63;;;18.98;100.00
24666;BME280;29726;53.532;-1.478;2023-03-24T13:03:13;98198.16;;;19.06;100.00
24666;BME280;29726;53.532;-1.478;2023-03-24T13:06:06;98202.09;;;19.10;100.00
24666;BME280;29726;53.532;-1.478;2023-03-24T13:09:30;98195.84;;;19.12;100.00
24666;BME280;29726;53.532;-1.478;2023-03-24T13:12:18;98195.06;;;19.19;100.00
24666;BME280;29726;53.532;-1.478;2023-03-24T13:15:20;98194.47;;;19.20;100.00
24666;BME280;29726;53.532;-1.478;2023-03-24T13:18:17;98206.69;;;19.23;100.00
24666;BME280;29726;53.532;-1.478;2023-03-24T13:21:11;98223.06;;;19.24;98.75
24666;BME280;29726;53.532;-1.478;2023-03-24T13:24:07;98235.00;;;19.23;99.19
24666;BME280;29726;53.532;-1.478;2023-03-24T13:27:05;98190.06;;;19.27;100.00
24666;BME280;29726;53.532;-1.478;2023-03-24T13:33:11;98164.59;;;19.27;100.00
24666;BME280;29726;53.532;-1.478;2023-03-24T13:36:10;98169.84;;;19.30;100.00
24666;BME280;29726;53.532;-1.478;2023-03-24T13:39:04;98170.75;;;19.33;100.00
24666;BME280;29726;53.532;-1.478;2023-03-24T13:41:52;98154.38;;;19.31;100.00
24666;BME280;29726;53.532;-1.478;2023-03-24T13:44:41;98153.44;;;19.29;100.00
24666;BME280;29726;53.532;-1.478;2023-03-24T13:50:57;98163.00;;;19.33;100.00
24666;BME280;29726;53.532;-1.478;2023-03-24T13:54:08;98165.25;;;19.35;100.00
24666;BME280;29726;53.532;-1.478;2023-03-24T13:57:11;98179.38;;;19.35;100.00
24666;BME280;29726;53.532;-1.478;2023-03-24T14:00:17;98175.06;;;19.34;100.00
24666;BME280;29726;53.532;-1.478;2023-03-24T14:03:12;98194.88;;;19.34;100.00
24666;BME280;29726;53.532;-1.478;2023-03-24T14:06:06;98230.59;;;19.29;100.00
24666;BME280;29726;53.532;-1.478;2023-03-24T14:14:23;98196.13;;;19.23;100.00
24666;BME280;29726;53.532;-1.478;2023-03-24T14:22:48;98180.00;;;19.16;100.00
24666;BME280;29726;53.532;-1.478;2023-03-24T14:25:34;98163.41;;;19.13;100.00
24666;BME280;29726;53.532;-1.478;2023-03-24T14:31:30;98163.22;;;19.11;100.00
24666;BME280;29726;53.532;-1.478;2023-03-24T14:34:18;98143.34;;;19.01;100.00
24666;BME280;29726;53.532;-1.478;2023-03-24T14:37:07;98146.25;;;19.11;100.00
24666;BME280;29726;53.532;-1.478;2023-03-24T14:39:52;98131.53;;;19.12;100.00
24666;BME280;29726;53.532;-1.478;2023-03-24T14:45:41;98141.16;;;19.17;100.00
24666;BME280;29726;53.532;-1.478;2023-03-24T14:57:26;98137.97;;;19.30;100.00
24666;BME280;29726;53.532;-1.478;2023-03-24T15:03:51;98135.03;;;19.37;100.00
24666;BME280;29726;53.532;-1.478;2023-03-24T15:06:43;98114.66;;;19.39;100.00
24666;BME280;29726;53.532;-1.478;2023-03-24T15:09:29;98136.69;;;19.40;100.00
24666;BME280;29726;53.532;-1.478;2023-03-24T15:12:14;98131.34;;;19.44;100.00
24666;BME280;29726;53.532;-1.478;2023-03-24T15:14:59;98129.03;;;19.50;100.00
24666;BME280;29726;53.532;-1.478;2023-03-24T15:17:44;98125.75;;;19.54;100.00
24666;BME280;29726;53.532;-1.478;2023-03-24T15:20:35;98120.72;;;19.52;100.00
24666;BME280;29726;53.532;-1.478;2023-03-24T15:23:25;98105.84;;;19.61;100.00
24666;BME280;29726;53.532;-1.478;2023-03-24T15:26:12;98116.00;;;19.64;100.00
24666;BME280;29726;53.532;-1.478;2023-03-24T15:29:05;98102.75;;;19.67;100.00
24666;BME280;29726;53.532;-1.478;2023-03-24T15:31:50;98122.28;;;19.72;100.00
24666;BME280;29726;53.532;-1.478;2023-03-24T15:34:36;98129.03;;;19.77;100.00
24666;BME280;29726;53.532;-1.478;2023-03-24T15:37:37;98129.19;;;19.79;100.00
24666;BME280;29726;53.532;-1.478;2023-03-24T15:40:30;98142.00;;;19.80;100.00
24666;BME280;29726;53.532;-1.478;2023-03-24T15:43:19;98122.19;;;19.80;100.00
24666;BME280;29726;53.532;-1.478;2023-03-24T15:46:04;98110.59;;;19.85;100.00
24666;BME280;29726;53.532;-1.478;2023-03-24T15:48:50;98096.28;;;19.83;100.00
24666;BME280;29726;53.532;-1.478;2023-03-24T15:51:46;98099.75;;;19.91;100.00
24666;BME280;29726;53.532;-1.478;2023-03-24T15:54:39;98107.81;;;19.95;100.00
24666;BME280;29726;53.532;-1.478;2023-03-24T15:57:25;98076.88;;;19.80;100.00
24666;BME280;29726;53.532;-1.478;2023-03-24T16:00:15;98098.13;;;19.98;100.00
24666;BME280;29726;53.532;-1.478;2023-03-24T16:03:00;98094.72;;;19.99;100.00
24666;BME280;29726;53.532;-1.478;2023-03-24T16:05:48;98092.63;;;20.00;100.00
24666;BME280;29726;53.532;-1.478;2023-03-24T16:08:35;98098.47;;;20.02;100.00
24666;BME280;29726;53.532;-1.478;2023-03-24T16:11:23;98088.16;;;19.97;100.00
24666;BME280;29726;53.532;-1.478;2023-03-24T16:14:24;98092.81;;;20.02;100.00
24666;BME280;29726;53.532;-1.478;2023-03-24T16:17:08;98104.13;;;20.02;100.00
24666;BME280;29726;53.532;-1.478;2023-03-24T16:19:52;98081.13;;;19.98;100.00
24666;BME280;29726;53.532;-1.478;2023-03-24T16:22:36;98079.97;;;20.01;100.00
24666;BME280;29726;53.532;-1.478;2023-03-24T16:25:20;98079.06;;;19.98;100.00
24666;BME280;29726;53.532;-1.478;2023-03-24T16:28:04;98077.41;;;19.95;100.00
24666;BME280;29726;53.532;-1.478;2023-03-24T16:30:55;98084.31;;;20.02;100.00
24666;BME280;29726;53.532;-1.478;2023-03-24T16:33:41;98083.06;;;19.95;100.00
24666;BME280;29726;53.532;-1.478;2023-03-24T16:36:25;98087.72;;;20.00;100.00